createdAt,value
2022-12-14T00:01:40.889Z,27.33
2022-12-14T00:04:09.069Z,26.70
2022-12-14T00:06:37.449Z,26.30
2022-12-14T00:09:06.211Z,24.73
2022-12-14T00:11:34.930Z,25.67
2022-12-14T00:14:04.865Z,26.77
2022-12-14T00:16:35.184Z,25.08
2022-12-14T00:19:04.331Z,25.75
2022-12-14T00:21:32.398Z,27.02
2022-12-14T00:24:00.849Z,26.20
2022-12-14T00:26:31.156Z,25.85
2022-12-14T00:29:01.879Z,26.98
2022-12-14T00:31:31.439Z,28.05
2022-12-14T00:34:00.205Z,25.80
2022-12-14T00:38:56.743Z,25.52
2022-12-14T00:41:24.853Z,26.50
2022-12-14T00:43:53.173Z,24.48
2022-12-14T00:46:21.533Z,25.23
2022-12-14T00:48:49.843Z,25.38
2022-12-14T00:51:18.063Z,25.98
2022-12-14T00:53:47.296Z,25.10
2022-12-14T00:56:15.570Z,26.25
2022-12-14T00:58:43.727Z,25.27
2022-12-14T01:01:13.610Z,24.38
2022-12-14T01:03:42.801Z,25.55
2022-12-14T01:06:23.786Z,26.45
2022-12-14T01:08:52.253Z,26.73
2022-12-14T01:11:20.489Z,25.75
2022-12-14T01:13:49.498Z,25.98
2022-12-14T01:16:18.339Z,24.90
2022-12-14T01:21:21.883Z,26.17
2022-12-14T01:23:53.752Z,26.55
2022-12-14T01:26:23.853Z,25.40
2022-12-14T01:28:55.246Z,24.98
2022-12-14T01:31:25.713Z,26.05
2022-12-14T01:33:54.630Z,24.88
2022-12-14T01:36:25.432Z,25.33
2022-12-14T01:38:55.273Z,25.63
2022-12-14T01:41:25.121Z,26.63
2022-12-14T01:43:56.701Z,25.85
2022-12-14T01:46:30.972Z,25.52
2022-12-14T01:49:19.187Z,25.92
2022-12-14T01:51:55.480Z,25.98
2022-12-14T01:54:26.513Z,25.58
2022-12-14T01:56:56.013Z,25.27
2022-12-14T01:59:32.911Z,24.90
2022-12-14T02:02:03.844Z,25.83
2022-12-14T02:04:35.258Z,27.38
2022-12-14T02:07:04.292Z,25.52
2022-12-14T02:09:37.824Z,26.30
2022-12-14T02:12:08.495Z,24.65
2022-12-14T02:14:37.127Z,25.52
2022-12-14T02:17:07.623Z,27.27
2022-12-14T02:19:37.909Z,26.00
2022-12-14T02:22:35.215Z,26.48
2022-12-14T02:25:21.964Z,25.30
2022-12-14T02:28:36.233Z,25.63
2022-12-14T02:31:55.628Z,28.10
2022-12-14T02:34:39.976Z,25.92
2022-12-14T02:37:26.599Z,24.98
2022-12-14T02:40:13.274Z,25.85
2022-12-14T02:43:23.073Z,25.00
2022-12-14T02:46:07.936Z,25.50
2022-12-14T02:48:49.250Z,24.80
2022-12-14T02:51:35.286Z,26.30
2022-12-14T02:54:23.611Z,25.38
2022-12-14T02:56:57.152Z,25.55
2022-12-14T02:59:26.226Z,25.10
2022-12-14T03:01:55.242Z,26.23
2022-12-14T03:04:25.204Z,24.90
2022-12-14T03:07:02.280Z,25.85
2022-12-14T03:09:32.358Z,24.63
2022-12-14T03:12:10.626Z,23.63
2022-12-14T03:14:45.290Z,23.77
2022-12-14T03:17:24.250Z,24.88
2022-12-14T03:20:04.411Z,24.63
2022-12-14T03:23:09.866Z,25.58
2022-12-14T03:25:52.985Z,23.27
2022-12-14T03:28:42.184Z,23.95
2022-12-14T03:31:24.955Z,24.25
2022-12-14T03:33:56.706Z,24.67
2022-12-14T03:36:59.147Z,24.27
2022-12-14T03:39:33.028Z,23.90
2022-12-14T03:42:15.746Z,25.23
2022-12-14T03:44:57.467Z,25.38
2022-12-14T03:47:28.588Z,24.60
2022-12-14T03:50:11.986Z,24.88
2022-12-14T03:53:07.480Z,23.75
2022-12-14T03:56:06.717Z,23.35
2022-12-14T03:58:56.786Z,24.85
2022-12-14T04:01:49.233Z,25.15
2022-12-14T04:04:43.369Z,23.73
2022-12-14T04:07:35.192Z,23.58
2022-12-14T04:10:13.807Z,24.55
2022-12-14T04:15:30.160Z,23.85
2022-12-14T04:18:04.752Z,25.02
2022-12-14T04:20:50.864Z,25.13
2022-12-14T04:23:26.511Z,23.05
2022-12-14T04:25:55.407Z,24.98
2022-12-14T04:30:53.174Z,22.70
2022-12-14T04:33:21.399Z,22.88
2022-12-14T04:35:51.628Z,22.58
2022-12-14T04:38:33.287Z,24.27
2022-12-14T04:41:06.217Z,24.00
2022-12-14T04:43:40.676Z,23.95
2022-12-14T04:46:16.414Z,23.90
2022-12-14T04:49:08.590Z,23.38
2022-12-14T04:51:58.235Z,23.65
2022-12-14T04:54:39.736Z,23.25
2022-12-14T04:57:40.402Z,25.20
2022-12-14T05:00:10.143Z,23.42
2022-12-14T05:03:09.208Z,23.23
2022-12-14T05:06:05.440Z,25.35
2022-12-14T05:09:02.802Z,24.33
2022-12-14T05:11:54.603Z,23.67
2022-12-14T05:14:35.349Z,23.83
2022-12-14T05:17:08.910Z,24.40
2022-12-14T05:19:38.324Z,23.08
2022-12-14T05:22:08.323Z,22.73
2022-12-14T05:24:36.833Z,24.23
2022-12-14T05:27:05.480Z,24.00
2022-12-14T05:29:33.777Z,24.73
2022-12-14T05:32:02.998Z,22.95
2022-12-14T05:34:31.729Z,23.15
2022-12-14T05:36:59.812Z,24.13
2022-12-14T05:39:28.078Z,24.17
2022-12-14T05:41:56.318Z,24.92
2022-12-14T05:44:24.764Z,24.60
2022-12-14T05:46:53.113Z,22.67
2022-12-14T05:49:21.286Z,21.90
2022-12-14T05:51:50.099Z,23.90
2022-12-14T05:54:18.483Z,23.00
2022-12-14T05:56:46.502Z,24.38
2022-12-14T05:59:14.845Z,21.52
2022-12-14T06:01:44.206Z,23.63
2022-12-14T06:04:14.159Z,23.80
2022-12-14T06:06:43.032Z,23.60
2022-12-14T06:11:41.820Z,24.23
2022-12-14T06:14:10.992Z,22.00
2022-12-14T06:16:43.856Z,23.13
2022-12-14T06:19:13.033Z,22.90
2022-12-14T06:21:42.872Z,22.95
2022-12-14T06:24:13.063Z,24.10
2022-12-14T06:26:41.644Z,23.00
2022-12-14T06:29:16.954Z,24.30
2022-12-14T06:31:45.878Z,21.67
2022-12-14T06:34:18.886Z,24.10
2022-12-14T06:36:48.060Z,25.05
2022-12-14T06:39:17.532Z,23.25
2022-12-14T06:41:50.371Z,24.38
2022-12-14T06:44:18.840Z,23.50
2022-12-14T06:46:47.329Z,23.48
2022-12-14T06:49:16.486Z,23.73
2022-12-14T06:51:45.647Z,23.40
2022-12-14T06:54:14.566Z,21.95
2022-12-14T06:56:45.319Z,24.13
2022-12-14T06:59:14.187Z,23.33
2022-12-14T07:09:12.921Z,23.77
2022-12-14T07:11:41.727Z,24.42
2022-12-14T07:14:18.444Z,23.65
2022-12-14T07:16:48.744Z,23.05
2022-12-14T07:19:18.377Z,23.25
2022-12-14T07:21:46.600Z,23.58
2022-12-14T07:24:15.243Z,23.75
2022-12-14T07:29:11.752Z,23.80
2022-12-14T07:31:40.326Z,25.70
2022-12-14T07:34:08.685Z,24.45
2022-12-14T07:36:37.139Z,23.67
2022-12-14T07:39:05.622Z,23.55
2022-12-14T07:41:33.968Z,24.38
2022-12-14T07:44:05.282Z,24.27
2022-12-14T07:46:33.630Z,24.52
2022-12-14T07:49:03.143Z,16.98
2022-12-14T07:51:33.781Z,17.30
2022-12-14T07:54:03.431Z,17.08
2022-12-14T07:56:34.183Z,16.15
2022-12-14T07:59:04.896Z,17.48
2022-12-14T08:01:36.120Z,17.05
2022-12-14T08:04:10.249Z,16.58
2022-12-14T08:06:39.972Z,16.83
2022-12-14T08:09:09.876Z,16.58
2022-12-14T08:11:38.352Z,17.45
2022-12-14T08:14:09.340Z,17.50
2022-12-14T08:16:37.529Z,16.35
2022-12-14T08:19:05.934Z,16.50
2022-12-14T08:21:34.431Z,16.45
2022-12-14T08:24:02.682Z,16.00
2022-12-14T08:26:35.437Z,16.00
2022-12-14T08:29:05.698Z,14.80
2022-12-14T08:31:34.236Z,15.82
2022-12-14T08:34:03.519Z,15.30
2022-12-14T08:36:34.692Z,15.32
2022-12-14T08:39:08.707Z,13.98
2022-12-14T08:41:38.033Z,14.43
2022-12-14T08:44:06.756Z,13.93
2022-12-14T08:49:04.540Z,13.73
2022-12-14T08:51:32.755Z,13.52
2022-12-14T08:54:01.136Z,14.52
2022-12-14T08:58:58.034Z,11.98
2022-12-14T09:01:33.274Z,12.30
2022-12-14T09:04:06.995Z,12.38
2022-12-14T09:06:37.955Z,13.52
2022-12-14T09:09:13.632Z,12.70
2022-12-14T09:11:46.293Z,13.27
2022-12-14T09:14:15.014Z,12.18
2022-12-14T09:19:11.450Z,13.43
2022-12-14T09:21:40.010Z,13.77
2022-12-14T09:26:36.468Z,11.60
2022-12-14T09:31:33.621Z,13.25
2022-12-14T09:34:02.001Z,11.18
2022-12-14T09:36:30.334Z,12.65
2022-12-14T09:38:58.821Z,11.98
2022-12-14T09:42:01.130Z,12.20
2022-12-14T09:44:44.906Z,11.80
2022-12-14T09:47:20.942Z,12.05
2022-12-14T09:49:55.489Z,11.63
2022-12-14T09:52:39.482Z,12.32
2022-12-14T09:55:38.070Z,10.88
2022-12-14T09:58:15.545Z,11.82
2022-12-14T10:01:07.651Z,11.02
2022-12-14T10:04:03.187Z,11.40
2022-12-14T10:06:41.794Z,12.00
2022-12-14T10:09:16.490Z,10.45
2022-12-14T10:12:30.984Z,10.80
2022-12-14T10:15:39.831Z,10.90
2022-12-14T10:18:58.267Z,10.40
2022-12-14T10:21:27.836Z,10.77
2022-12-14T10:24:05.101Z,10.57
2022-12-14T10:26:44.838Z,10.13
2022-12-14T10:29:31.740Z,9.48
2022-12-14T10:32:49.129Z,10.60
2022-12-14T10:35:19.521Z,10.10
2022-12-14T10:38:04.366Z,11.10
2022-12-14T10:40:35.404Z,11.50
2022-12-14T10:43:09.885Z,10.40
2022-12-14T10:45:55.043Z,10.75
2022-12-14T10:48:42.014Z,11.43
2022-12-14T10:51:39.632Z,10.77
2022-12-14T10:54:34.476Z,10.15
2022-12-14T10:57:02.949Z,9.25
2022-12-14T10:59:40.689Z,9.43
2022-12-14T11:02:25.110Z,10.50
2022-12-14T11:04:55.167Z,9.85
2022-12-14T11:07:38.603Z,10.18
2022-12-14T11:10:19.091Z,9.50
2022-12-14T11:13:13.429Z,9.43
2022-12-14T11:15:46.054Z,9.55
2022-12-14T11:18:17.519Z,9.38
2022-12-14T11:20:53.563Z,9.32
2022-12-14T11:23:36.925Z,9.07
2022-12-14T11:26:11.888Z,9.82
2022-12-14T11:28:55.461Z,8.57
2022-12-14T11:31:40.736Z,9.48
2022-12-14T11:34:27.558Z,10.15
2022-12-14T11:36:55.974Z,8.80
2022-12-14T11:39:25.730Z,8.90
2022-12-14T11:42:03.982Z,9.85
2022-12-14T11:44:37.567Z,7.72
2022-12-14T11:47:15.720Z,9.85
2022-12-14T11:49:52.881Z,9.75
2022-12-14T11:52:24.680Z,8.50
2022-12-14T11:54:55.737Z,9.13
2022-12-14T11:57:31.796Z,8.70
2022-12-14T12:00:22.211Z,8.98
2022-12-14T12:03:02.773Z,8.57
2022-12-14T12:05:34.088Z,9.18
2022-12-14T12:08:03.180Z,8.63
2022-12-14T12:10:41.807Z,7.90
2022-12-14T12:13:27.649Z,7.38
2022-12-14T12:16:01.263Z,8.23
2022-12-14T12:18:41.669Z,8.52
2022-12-14T12:21:31.270Z,7.88
2022-12-14T12:24:08.668Z,8.18
2022-12-14T12:26:59.061Z,7.85
2022-12-14T12:29:46.041Z,8.07
2022-12-14T12:32:39.937Z,8.68
2022-12-14T12:35:14.812Z,7.65
2022-12-14T12:37:56.701Z,7.43
2022-12-14T12:41:00.211Z,8.63
2022-12-14T12:43:41.117Z,8.60
2022-12-14T12:46:20.241Z,7.60
2022-12-14T12:48:54.183Z,7.75
2022-12-14T12:51:31.829Z,7.68
2022-12-14T12:54:11.698Z,7.30
2022-12-14T12:56:48.369Z,7.72
2022-12-14T12:59:44.575Z,7.95
2022-12-14T13:02:38.817Z,7.35
2022-12-14T13:05:45.134Z,7.15
2022-12-14T13:08:14.790Z,7.60
2022-12-14T13:13:35.432Z,7.35
2022-12-14T13:16:28.611Z,6.75
2022-12-14T13:19:50.493Z,8.02
2022-12-14T13:22:33.211Z,7.13
2022-12-14T13:25:13.744Z,6.90
2022-12-14T13:27:57.915Z,7.20
2022-12-14T13:30:44.067Z,7.80
2022-12-14T13:33:21.481Z,9.50
2022-12-14T13:36:01.902Z,8.57
2022-12-14T13:38:33.859Z,7.93
2022-12-14T13:41:20.779Z,8.32
2022-12-14T13:43:49.180Z,7.40
2022-12-14T13:46:29.341Z,8.40
2022-12-14T13:49:05.830Z,8.98
2022-12-14T13:51:40.880Z,7.50
2022-12-14T13:54:22.765Z,8.40
2022-12-14T13:56:51.204Z,8.13
2022-12-14T13:59:34.609Z,8.88
2022-12-14T14:02:04.517Z,8.45
2022-12-14T14:04:34.764Z,8.35
2022-12-14T14:07:24.604Z,7.32
2022-12-14T14:10:07.043Z,8.65
2022-12-14T14:12:43.869Z,8.30
2022-12-14T14:15:38.137Z,8.00
2022-12-14T14:18:19.532Z,6.90
2022-12-14T14:20:58.916Z,8.07
2022-12-14T14:23:33.327Z,7.72
2022-12-14T14:26:14.592Z,7.95
2022-12-14T14:28:42.883Z,6.85
2022-12-14T14:35:37.529Z,7.60
2022-12-14T14:38:21.758Z,7.30
2022-12-14T14:41:16.140Z,8.32
2022-12-14T14:43:51.717Z,7.75
2022-12-14T14:46:23.352Z,7.60
2022-12-14T14:48:55.096Z,8.73
2022-12-14T14:51:33.428Z,8.35
2022-12-14T14:57:35.078Z,7.72
2022-12-14T15:00:06.810Z,8.40
2022-12-14T15:02:41.977Z,7.07
2022-12-14T15:08:40.390Z,7.30
2022-12-14T15:11:20.810Z,8.20
2022-12-14T15:14:01.632Z,8.38
2022-12-14T15:16:34.350Z,8.40
2022-12-14T15:19:28.877Z,7.88
2022-12-14T15:22:15.020Z,7.55
2022-12-14T15:24:45.199Z,7.55
2022-12-14T15:27:27.660Z,7.13
2022-12-14T15:30:19.075Z,7.53
2022-12-14T15:32:52.842Z,7.85
2022-12-14T15:35:49.514Z,8.52
2022-12-14T15:38:33.320Z,7.95
2022-12-14T15:41:20.274Z,7.30
2022-12-14T15:43:52.670Z,7.50
2022-12-14T15:46:31.954Z,6.93
2022-12-14T15:49:01.683Z,7.30
2022-12-14T15:51:48.385Z,6.70
2022-12-14T15:54:20.640Z,6.68
2022-12-14T15:56:55.070Z,7.18
2022-12-14T15:59:32.670Z,7.97
2022-12-14T16:02:15.499Z,7.30
2022-12-14T16:04:45.500Z,6.43
2022-12-14T16:07:26.164Z,6.45
2022-12-14T16:10:02.710Z,6.40
2022-12-14T16:12:44.508Z,6.97
2022-12-14T16:15:30.187Z,6.93
2022-12-14T16:18:02.546Z,6.82
2022-12-14T16:20:43.036Z,6.68
2022-12-14T16:23:14.451Z,6.63
2022-12-14T16:25:56.867Z,6.28
2022-12-14T16:28:36.063Z,6.65
2022-12-14T16:31:16.656Z,6.70
2022-12-14T16:33:46.128Z,6.38
2022-12-14T16:36:23.412Z,7.60
2022-12-14T16:39:04.473Z,7.38
2022-12-14T16:41:41.979Z,9.73
2022-12-14T16:44:22.912Z,9.40
2022-12-14T16:47:03.331Z,10.20
2022-12-14T16:49:40.043Z,10.00
2022-12-14T16:52:11.218Z,9.88
2022-12-14T16:54:39.745Z,10.20
2022-12-14T16:59:57.741Z,11.27
2022-12-14T17:06:56.549Z,10.30
2022-12-14T17:09:30.474Z,9.35
2022-12-14T17:12:01.338Z,10.23
2022-12-14T17:14:29.768Z,10.48
2022-12-14T17:17:04.747Z,10.18
2022-12-14T17:19:38.513Z,9.70
2022-12-14T17:22:14.960Z,9.38
2022-12-14T17:24:43.318Z,10.52
2022-12-14T17:27:17.609Z,10.18
2022-12-14T17:29:46.075Z,9.93
2022-12-14T17:32:16.907Z,9.90
2022-12-14T17:34:46.653Z,8.82
2022-12-14T17:37:20.120Z,10.55
2022-12-14T17:39:48.932Z,10.07
2022-12-14T17:44:54.973Z,11.18
2022-12-14T17:47:23.553Z,10.43
2022-12-14T17:49:52.074Z,10.65
2022-12-14T17:52:30.810Z,8.93
2022-12-14T17:54:59.944Z,10.05
2022-12-14T17:57:28.174Z,9.40
2022-12-14T17:59:56.628Z,8.95
2022-12-14T18:02:30.148Z,9.75
2022-12-14T18:04:58.860Z,9.30
2022-12-14T18:07:27.807Z,9.82
2022-12-14T18:12:24.744Z,9.40
2022-12-14T18:14:53.844Z,10.82
2022-12-14T18:17:22.118Z,9.00
2022-12-14T18:19:50.508Z,10.88
2022-12-14T18:22:18.878Z,10.45
2022-12-14T18:24:47.581Z,10.48
2022-12-14T18:27:17.533Z,11.07
2022-12-14T18:29:45.829Z,11.32
2022-12-14T18:32:14.933Z,10.63
2022-12-14T18:34:43.027Z,11.10
2022-12-14T18:37:11.798Z,10.80
2022-12-14T18:39:40.141Z,11.05
2022-12-14T18:42:09.503Z,10.25
2022-12-14T18:44:37.911Z,9.90
2022-12-14T18:47:33.639Z,10.52
2022-12-14T18:49:54.580Z,11.93
2022-12-14T18:52:22.757Z,11.52
2022-12-14T18:54:51.076Z,11.40
2022-12-14T18:57:20.384Z,12.30
2022-12-14T18:59:48.781Z,11.85
2022-12-14T19:02:17.215Z,10.75
2022-12-14T19:04:49.631Z,11.68
2022-12-14T19:07:18.152Z,11.18
2022-12-14T19:09:46.406Z,11.70
2022-12-14T19:12:14.660Z,13.85
2022-12-14T19:14:43.061Z,13.32
2022-12-14T19:17:11.377Z,12.45
2022-12-14T19:19:44.377Z,12.07
2022-12-14T19:22:13.188Z,12.77
2022-12-14T19:24:41.504Z,12.98
2022-12-14T19:27:10.016Z,13.05
2022-12-14T19:29:38.439Z,14.43
2022-12-14T19:32:07.055Z,13.05
2022-12-14T19:34:35.421Z,14.73
2022-12-14T19:37:03.868Z,13.65
2022-12-14T19:39:32.412Z,14.60
2022-12-14T19:42:00.845Z,13.02
2022-12-14T19:44:33.577Z,13.98
2022-12-14T19:47:02.590Z,13.80
2022-12-14T19:49:34.252Z,13.15
2022-12-14T19:52:02.616Z,14.85
2022-12-14T19:54:34.770Z,13.73
2022-12-14T19:57:03.754Z,13.70
2022-12-14T19:59:32.375Z,12.82
2022-12-14T20:02:01.917Z,13.20
2022-12-14T20:04:30.767Z,13.75
2022-12-14T20:06:59.306Z,12.90
2022-12-14T20:11:56.330Z,13.52
2022-12-14T20:14:27.440Z,13.82
2022-12-14T20:16:55.894Z,13.30
2022-12-14T20:19:24.456Z,13.10
2022-12-14T20:24:20.884Z,13.65
2022-12-14T20:26:49.382Z,13.55
2022-12-14T20:29:17.540Z,13.35
2022-12-14T20:31:46.042Z,13.80
2022-12-14T20:34:14.293Z,13.35
2022-12-14T20:36:42.790Z,14.23
2022-12-14T20:39:11.139Z,13.55
2022-12-14T20:41:39.919Z,14.82
2022-12-14T20:46:42.350Z,14.25
2022-12-14T20:49:13.572Z,14.13
2022-12-14T20:51:42.689Z,14.40
2022-12-14T20:54:17.262Z,14.68
2022-12-14T20:56:49.429Z,14.00
2022-12-14T20:59:18.730Z,14.80
2022-12-14T21:01:53.555Z,15.63
2022-12-14T21:04:24.386Z,13.98
2022-12-14T21:09:20.864Z,15.07
2022-12-14T21:11:51.072Z,15.90
2022-12-14T21:14:21.252Z,14.85
2022-12-14T21:16:49.984Z,13.60
2022-12-14T21:19:18.238Z,15.77
2022-12-14T21:51:22.508Z,15.40
2022-12-14T21:53:53.636Z,15.18
2022-12-14T21:56:23.275Z,15.23
2022-12-14T21:58:53.129Z,15.63
2022-12-14T22:01:22.758Z,15.45
2022-12-14T22:03:53.727Z,15.82
2022-12-14T22:06:22.012Z,14.65
2022-12-14T22:08:50.199Z,14.05
2022-12-14T22:11:18.620Z,14.77
2022-12-14T22:13:46.752Z,15.15
2022-12-14T22:16:15.078Z,15.32
2022-12-14T22:18:43.679Z,14.50
2022-12-14T22:21:12.106Z,15.52
2022-12-14T22:27:08.163Z,15.48
2022-12-14T22:29:36.353Z,16.27
2022-12-14T22:32:04.962Z,16.45
2022-12-14T22:34:33.261Z,16.27
2022-12-14T22:37:01.907Z,13.93
2022-12-14T22:39:30.386Z,16.23
2022-12-14T22:41:58.631Z,15.88
2022-12-14T22:44:27.012Z,16.30
2022-12-14T22:46:55.058Z,17.02
2022-12-14T22:49:23.647Z,16.67
2022-12-14T22:51:51.823Z,15.52
2022-12-14T22:54:28.274Z,16.23
2022-12-14T22:57:04.850Z,15.80
2022-12-14T22:59:44.277Z,17.40
2022-12-14T23:02:12.863Z,16.08
2022-12-14T23:07:09.279Z,16.27
2022-12-14T23:09:37.564Z,16.52
2022-12-14T23:12:11.214Z,15.40
2022-12-14T23:14:40.384Z,16.60
2022-12-14T23:17:08.935Z,16.15
2022-12-14T23:19:37.352Z,15.63
2022-12-14T23:22:05.597Z,14.70
2022-12-14T23:24:33.922Z,15.75
2022-12-14T23:27:08.850Z,15.90
2022-12-14T23:29:38.252Z,15.80
2022-12-14T23:32:06.486Z,15.35
2022-12-14T23:34:34.756Z,15.60
2022-12-14T23:37:02.820Z,16.33
2022-12-14T23:39:30.920Z,13.73
2022-12-14T23:41:59.849Z,16.23
2022-12-14T23:44:28.228Z,16.33
2022-12-14T23:46:56.460Z,14.43
2022-12-14T23:49:24.689Z,14.25
2022-12-14T23:51:52.898Z,14.18
2022-12-14T23:54:21.061Z,14.30
2022-12-14T23:56:50.576Z,14.70
2022-12-14T23:59:20.150Z,15.15
